Time;durP1;ratioP1;P1;durP2;ratioP2;P2;SDS_P1;SDS_P2;PMS_P1;PMS_P2;Temp;Humidity;BMP_temperature;BMP_pressure;BME280_temperature;BME280_humidity;BME280_pressure;Samples;Min_cycle;Max_cycle;Signal;HPM_P1;HPM_P2
2021/08/05 00:00:14;;;;;;;12.30;9.23;;;18.80;99.90;;;;;;2098510;28;20017;-68
2021/08/05 00:01:14;;;;;;;9.40;8.50;;;18.80;99.90;;;;;;2098566;28;20036;-68
2021/08/05 00:02:15;;;;;;;9.63;8.88;;;18.80;99.90;;;;;;2097055;28;20062;-68
2021/08/05 00:03:16;;;;;;;9.77;8.88;;;18.80;99.90;;;;;;2096708;28;20031;-68
2021/08/05 00:04:16;;;;;;;10.30;9.05;;;18.80;99.90;;;;;;2098161;28;20021;-68
2021/08/05 00:05:17;;;;;;;9.63;8.82;;;18.80;99.90;;;;;;2105387;28;20201;-68
2021/08/05 00:06:17;;;;;;;9.23;8.43;;;18.80;99.90;;;;;;2105680;28;20539;-68
2021/08/05 00:07:18;;;;;;;9.55;8.65;;;18.80;99.90;;;;;;2104930;28;20077;-68
2021/08/05 00:08:18;;;;;;;10.80;9.80;;;18.80;99.90;;;;;;2097874;28;20104;-68
2021/08/05 00:09:19;;;;;;;10.43;9.60;;;18.70;99.90;;;;;;2099967;28;20031;-68
2021/08/05 00:10:20;;;;;;;9.27;8.48;;;18.80;99.90;;;;;;2097821;28;20024;-68
2021/08/05 00:11:21;;;;;;;9.82;8.93;;;18.70;99.90;;;;;;2102793;28;20044;-68
2021/08/05 00:12:21;;;;;;;9.85;8.95;;;18.80;99.90;;;;;;2091339;28;20037;-68
2021/08/05 00:13:22;;;;;;;10.02;9.23;;;18.80;99.90;;;;;;2095559;28;20467;-68
2021/08/05 00:14:23;;;;;;;8.57;7.78;;;18.70;99.90;;;;;;2101743;28;20528;-68
2021/08/05 00:15:24;;;;;;;8.40;7.60;;;18.80;99.90;;;;;;2097578;28;20020;-68
2021/08/05 00:16:24;;;;;;;11.55;10.55;;;18.80;99.90;;;;;;2096643;28;20394;-68
2021/08/05 00:17:25;;;;;;;11.20;10.20;;;18.70;99.90;;;;;;2097185;28;20492;-68
2021/08/05 00:18:25;;;;;;;10.95;9.95;;;18.70;99.90;;;;;;2089519;28;20502;-68
2021/08/05 00:19:26;;;;;;;10.35;9.45;;;18.80;99.90;;;;;;2100838;28;20024;-68
2021/08/05 00:20:27;;;;;;;10.27;9.48;;;18.80;99.90;;;;;;2098068;28;20021;-68
2021/08/05 00:21:27;;;;;;;9.23;8.52;;;18.70;99.90;;;;;;2100626;28;20028;-68
2021/08/05 00:22:28;;;;;;;8.88;8.10;;;18.70;99.90;;;;;;2096629;28;20066;-68
2021/08/05 00:23:28;;;;;;;11.50;9.80;;;18.70;99.90;;;;;;2095227;28;20032;-68
2021/08/05 00:24:29;;;;;;;8.60;7.60;;;18.70;99.90;;;;;;2104282;28;20032;-68
2021/08/05 00:25:29;;;;;;;11.32;9.85;;;18.70;99.90;;;;;;2105243;28;20537;-68
2021/08/05 00:26:30;;;;;;;9.65;8.75;;;18.70;99.90;;;;;;2093298;28;20029;-68
2021/08/05 00:27:31;;;;;;;10.38;8.95;;;18.70;99.90;;;;;;2093869;28;20420;-68
2021/08/05 00:28:33;;;;;;;11.65;10.48;;;18.70;99.90;;;;;;2096312;28;20028;-68
2021/08/05 00:29:34;;;;;;;10.30;9.45;;;18.70;99.90;;;;;;2105244;28;20472;-68
2021/08/05 00:30:34;;;;;;;10.98;10.02;;;18.70;99.90;;;;;;2094376;28;20356;-68
2021/08/05 00:31:35;;;;;;;10.13;9.13;;;18.70;99.90;;;;;;2091094;28;20024;-68
2021/08/05 00:32:36;;;;;;;9.50;8.60;;;18.70;99.90;;;;;;2096389;28;20040;-68
2021/08/05 00:33:37;;;;;;;13.23;12.05;;;18.70;99.90;;;;;;2094293;28;20108;-68
2021/08/05 00:34:37;;;;;;;12.80;10.88;;;18.70;99.90;;;;;;2096809;28;20797;-68
2021/08/05 00:35:38;;;;;;;10.55;9.65;;;18.70;99.90;;;;;;2096977;28;20082;-68
2021/08/05 00:36:39;;;;;;;11.02;10.02;;;18.70;99.90;;;;;;2096171;28;20032;-68
2021/08/05 00:37:39;;;;;;;8.85;8.05;;;18.70;99.90;;;;;;2096766;28;20464;-68
2021/08/05 00:38:40;;;;;;;9.57;8.77;;;18.70;99.90;;;;;;2096583;28;20024;-68
2021/08/05 00:39:41;;;;;;;12.50;11.23;;;18.70;99.90;;;;;;2094168;28;20029;-68
2021/08/05 00:40:41;;;;;;;13.07;11.85;;;18.70;99.90;;;;;;2092880;28;20051;-68
2021/08/05 00:41:42;;;;;;;13.48;12.38;;;18.70;99.90;;;;;;2098513;28;20017;-68
2021/08/05 00:42:43;;;;;;;14.60;13.40;;;18.70;99.90;;;;;;2104785;28;20024;-68
2021/08/05 00:43:44;;;;;;;12.63;11.40;;;18.70;99.90;;;;;;2102213;28;20074;-68
2021/08/05 00:44:44;;;;;;;10.68;9.70;;;18.70;99.90;;;;;;2104738;28;20491;-68
2021/08/05 00:45:45;;;;;;;12.10;11.10;;;18.70;99.90;;;;;;2101393;28;20118;-68
2021/08/05 00:46:45;;;;;;;14.98;13.68;;;18.70;99.90;;;;;;2100730;28;20523;-68
2021/08/05 00:47:46;;;;;;;15.85;14.38;;;18.70;99.90;;;;;;2105031;28;20062;-68
2021/08/05 00:48:46;;;;;;;14.52;13.23;;;18.70;99.90;;;;;;2098389;28;20028;-68
2021/08/05 00:49:47;;;;;;;14.05;12.90;;;18.70;99.90;;;;;;2095708;28;20028;-68
2021/08/05 00:50:48;;;;;;;14.93;13.48;;;18.70;99.90;;;;;;2088972;28;20083;-68
2021/08/05 00:51:49;;;;;;;13.82;12.35;;;18.70;99.90;;;;;;2099728;28;20058;-68
2021/08/05 00:52:49;;;;;;;15.82;14.52;;;18.70;99.90;;;;;;2101436;28;20024;-68
2021/08/05 00:53:50;;;;;;;17.25;15.32;;;18.70;99.90;;;;;;2096376;28;20499;-68
2021/08/05 00:54:51;;;;;;;14.32;13.13;;;18.70;99.90;;;;;;2100949;28;20031;-68
2021/08/05 00:55:51;;;;;;;15.77;14.38;;;18.70;99.90;;;;;;2103892;28;20109;-68
2021/08/05 00:56:52;;;;;;;17.08;15.57;;;18.70;99.90;;;;;;2103599;28;20020;-68
2021/08/05 00:57:53;;;;;;;16.88;15.27;;;18.70;99.90;;;;;;2098585;28;20108;-68
2021/08/05 00:58:53;;;;;;;17.65;15.45;;;18.60;99.90;;;;;;2105200;28;20084;-68
2021/08/05 00:59:54;;;;;;;18.00;16.50;;;18.60;99.90;;;;;;2101880;28;20385;-68
2021/08/05 01:01:03;;;;;;;15.70;14.15;;;18.60;99.90;;;;;;2096936;28;20387;-68
2021/08/05 01:02:17;;;;;;;16.77;15.13;;;18.60;99.90;;;;;;2103179;28;20020;-68
2021/08/05 01:03:27;;;;;;;16.58;15.07;;;18.60;99.90;;;;;;2091521;28;20573;-68
2021/08/05 01:04:31;;;;;;;15.30;14.05;;;18.60;99.90;;;;;;2088280;28;20047;-68
2021/08/05 01:05:40;;;;;;;14.88;13.48;;;18.60;99.90;;;;;;2091949;28;20409;-68
2021/08/05 01:06:59;;;;;;;17.23;15.60;;;18.60;99.90;;;;;;2096523;28;20031;-68
2021/08/05 01:08:05;;;;;;;16.48;15.07;;;18.60;99.90;;;;;;2092589;28;20032;-68
2021/08/05 01:09:24;;;;;;;13.18;12.07;;;18.60;99.90;;;;;;2090745;28;20021;-68
2021/08/05 01:10:49;;;;;;;16.45;14.95;;;18.60;99.90;;;;;;2099032;28;20036;-68
2021/08/05 01:12:01;;;;;;;17.45;15.88;;;18.50;99.90;;;;;;2088823;28;20028;-68
2021/08/05 01:13:19;;;;;;;14.80;12.77;;;18.50;99.90;;;;;;2096476;28;20099;-68
2021/08/05 01:14:23;;;;;;;13.55;12.25;;;18.60;99.90;;;;;;2096285;28;20024;-68
2021/08/05 01:15:25;;;;;;;14.73;13.40;;;18.50;99.90;;;;;;2100465;28;20063;-68
2021/08/05 01:16:28;;;;;;;12.85;11.68;;;18.50;99.90;;;;;;2104486;28;20097;-68
2021/08/05 01:17:34;;;;;;;16.35;14.85;;;18.50;99.90;;;;;;2104285;28;20061;-68
2021/08/05 01:18:37;;;;;;;14.95;13.65;;;18.60;99.90;;;;;;2087789;28;20021;-68
2021/08/05 01:19:56;;;;;;;12.50;11.40;;;18.50;99.90;;;;;;2095753;28;20036;-68
2021/08/05 01:21:04;;;;;;;11.65;10.75;;;18.60;99.90;;;;;;2092664;28;20031;-68
2021/08/05 01:22:07;;;;;;;12.13;11.02;;;18.50;99.90;;;;;;2090109;28;20114;-68
2021/08/05 01:23:29;;;;;;;13.80;12.68;;;18.50;99.90;;;;;;2096593;28;20024;-68
2021/08/05 01:24:36;;;;;;;15.20;13.80;;;18.50;99.90;;;;;;2103044;28;20567;-68
2021/08/05 01:25:56;;;;;;;16.38;14.88;;;18.50;99.90;;;;;;2104801;28;20028;-68
2021/08/05 01:27:00;;;;;;;14.27;12.95;;;18.50;99.90;;;;;;2090265;28;20052;-68
2021/08/05 01:28:03;;;;;;;15.23;13.82;;;18.50;99.90;;;;;;2098393;28;20380;-68
2021/08/05 01:29:05;;;;;;;14.55;13.25;;;18.50;99.90;;;;;;2101055;28;20028;-68
2021/08/05 01:30:08;;;;;;;11.23;10.15;;;18.50;99.90;;;;;;2102479;28;20106;-68
2021/08/05 01:31:10;;;;;;;14.23;12.73;;;18.50;99.90;;;;;;2104675;28;20028;-68
2021/08/05 01:32:11;;;;;;;15.93;14.60;;;18.50;99.90;;;;;;2099584;28;20316;-68
2021/08/05 01:33:16;;;;;;;15.85;14.30;;;18.60;99.90;;;;;;2100278;28;20024;-68
2021/08/05 01:34:18;;;;;;;15.52;14.02;;;18.60;99.90;;;;;;2103571;28;20016;-68
2021/08/05 01:35:20;;;;;;;16.30;14.80;;;18.60;99.90;;;;;;2104600;28;20052;-68
2021/08/05 01:36:23;;;;;;;17.65;16.15;;;18.60;99.90;;;;;;2104884;28;20107;-68
2021/08/05 01:37:25;;;;;;;15.93;14.63;;;18.50;99.90;;;;;;2104703;28;20031;-68
2021/08/05 01:38:25;;;;;;;17.30;15.68;;;18.60;99.90;;;;;;2093806;28;20029;-68
2021/08/05 01:39:28;;;;;;;21.48;19.48;;;18.60;99.90;;;;;;2095769;28;20028;-68
2021/08/05 01:40:30;;;;;;;22.27;20.38;;;18.60;99.90;;;;;;2091239;28;20127;-68
2021/08/05 01:41:31;;;;;;;21.80;19.92;;;18.50;99.90;;;;;;2096479;28;20060;-68
2021/08/05 01:42:32;;;;;;;20.77;18.90;;;18.60;99.90;;;;;;2098742;28;20041;-68
2021/08/05 01:43:33;;;;;;;23.73;21.50;;;18.50;99.90;;;;;;2095570;28;20079;-68
2021/08/05 01:44:35;;;;;;;21.90;19.98;;;18.50;99.90;;;;;;2093011;28;20770;-68
2021/08/05 01:45:38;;;;;;;18.30;16.42;;;18.50;99.90;;;;;;2093550;28;20039;-68
2021/08/05 01:46:40;;;;;;;19.52;17.30;;;18.60;99.90;;;;;;2097711;28;20024;-68
2021/08/05 01:47:40;;;;;;;18.70;17.05;;;18.60;99.90;;;;;;2098169;28;20099;-68
2021/08/05 01:48:41;;;;;;;22.52;20.45;;;18.50;99.90;;;;;;2095471;28;20025;-68
2021/08/05 01:49:43;;;;;;;22.20;20.10;;;18.50;99.90;;;;;;2093565;28;20087;-68
2021/08/05 01:50:44;;;;;;;21.75;19.65;;;18.60;99.90;;;;;;2094387;28;20035;-68
2021/08/05 01:51:47;;;;;;;22.17;19.98;;;18.50;99.90;;;;;;2095863;28;20418;-68
2021/08/05 01:52:48;;;;;;;20.80;18.95;;;18.50;99.90;;;;;;2091507;28;20021;-68
2021/08/05 01:53:53;;;;;;;18.52;16.70;;;18.50;99.90;;;;;;2097556;28;20024;-68
2021/08/05 01:54:53;;;;;;;15.00;13.68;;;18.50;99.90;;;;;;2096454;28;20103;-68
2021/08/05 01:55:54;;;;;;;15.15;13.65;;;18.50;99.90;;;;;;2103643;28;20036;-68
2021/08/05 01:56:55;;;;;;;17.80;16.15;;;18.50;99.90;;;;;;2095190;28;20129;-68
2021/08/05 01:57:57;;;;;;;17.00;15.50;;;18.50;99.90;;;;;;2096567;28;20503;-68
2021/08/05 01:58:59;;;;;;;19.80;18.08;;;18.50;99.90;;;;;;2099684;28;20020;-68
2021/08/05 02:00:00;;;;;;;18.70;16.80;;;18.50;99.90;;;;;;2089510;28;20025;-68
2021/08/05 02:01:00;;;;;;;19.70;18.00;;;18.50;99.90;;;;;;2092238;28;20037;-68
2021/08/05 02:02:02;;;;;;;17.13;15.65;;;18.50;99.90;;;;;;2097876;28;20036;-68
2021/08/05 02:03:04;;;;;;;18.90;17.20;;;18.50;99.90;;;;;;2101628;28;20087;-68
2021/08/05 02:04:32;;;;;;;18.40;16.70;;;18.50;99.90;;;;;;2101174;28;20494;-68
2021/08/05 02:05:42;;;;;;;16.23;14.88;;;18.50;99.90;;;;;;2089338;28;20044;-68
2021/08/05 02:06:55;;;;;;;18.45;16.83;;;18.50;99.90;;;;;;2097126;28;20032;-68
2021/08/05 02:08:09;;;;;;;21.08;18.98;;;18.50;99.90;;;;;;2094117;28;20037;-68
2021/08/05 02:09:15;;;;;;;18.70;16.95;;;18.50;99.90;;;;;;2094621;28;20509;-68
2021/08/05 02:10:43;;;;;;;20.10;18.27;;;18.50;99.90;;;;;;2097862;28;20017;-68
2021/08/05 02:11:50;;;;;;;15.82;14.52;;;18.50;99.90;;;;;;2087981;28;20536;-68
2021/08/05 02:13:00;;;;;;;16.92;15.43;;;18.40;99.90;;;;;;2094756;28;20074;-68
2021/08/05 02:14:02;;;;;;;12.43;11.32;;;18.50;99.90;;;;;;2098114;28;20021;-68
2021/08/05 02:15:04;;;;;;;12.43;11.32;;;18.40;99.90;;;;;;2107705;28;20067;-68
2021/08/05 02:16:12;;;;;;;15.70;14.18;;;18.50;99.90;;;;;;2107432;28;20039;-68
2021/08/05 02:17:15;;;;;;;18.30;16.50;;;18.50;99.90;;;;;;2107423;28;20123;-68
2021/08/05 02:18:16;;;;;;;20.55;18.70;;;18.50;99.90;;;;;;2100443;28;20032;-68
2021/08/05 02:19:17;;;;;;;19.60;17.80;;;18.50;99.90;;;;;;2102323;28;20051;-68
2021/08/05 02:20:18;;;;;;;18.75;15.88;;;18.40;99.90;;;;;;2099043;28;20017;-68
2021/08/05 02:21:21;;;;;;;16.27;14.77;;;18.50;99.90;;;;;;2103706;28;20025;-68
2021/08/05 02:22:22;;;;;;;15.57;14.10;;;18.50;99.90;;;;;;2099270;28;20476;-68
2021/08/05 02:23:24;;;;;;;16.02;14.52;;;18.50;99.90;;;;;;2090986;28;20405;-68
2021/08/05 02:24:30;;;;;;;15.93;14.52;;;18.50;99.90;;;;;;2091132;28;20032;-68
2021/08/05 02:25:31;;;;;;;16.67;15.15;;;18.50;99.90;;;;;;2095052;28;20033;-68
2021/08/05 02:26:31;;;;;;;16.58;14.98;;;18.50;99.90;;;;;;2107481;28;20024;-68
2021/08/05 02:27:33;;;;;;;20.75;18.85;;;18.50;99.90;;;;;;2104773;28;20032;-68
2021/08/05 02:28:34;;;;;;;19.52;17.73;;;18.40;99.90;;;;;;2099980;28;20033;-68
2021/08/05 02:29:35;;;;;;;20.92;19.08;;;18.50;99.90;;;;;;2103802;28;20476;-68
2021/08/05 02:30:37;;;;;;;18.00;16.40;;;18.50;99.90;;;;;;2102898;28;20044;-68
2021/08/05 02:31:38;;;;;;;20.92;19.15;;;18.50;99.90;;;;;;2107280;28;20056;-68
2021/08/05 02:32:39;;;;;;;23.80;21.50;;;18.50;99.90;;;;;;2095626;28;20496;-68
2021/08/05 02:33:41;;;;;;;24.48;22.05;;;18.50;99.90;;;;;;2095484;28;20020;-68
2021/08/05 02:34:42;;;;;;;19.65;17.63;;;18.50;99.90;;;;;;2107437;28;20077;-68
2021/08/05 02:35:45;;;;;;;21.17;19.17;;;18.50;99.90;;;;;;2107221;28;20026;-68
2021/08/05 02:36:45;;;;;;;24.48;22.17;;;18.50;99.90;;;;;;2099747;28;20027;-68
2021/08/05 02:37:46;;;;;;;18.05;16.45;;;18.50;99.90;;;;;;2104639;28;20024;-68
2021/08/05 02:38:47;;;;;;;17.38;15.77;;;18.50;99.90;;;;;;2098801;28;20020;-68
2021/08/05 02:39:47;;;;;;;15.95;14.50;;;18.50;99.90;;;;;;2094192;28;20079;-68
2021/08/05 02:40:49;;;;;;;22.63;20.52;;;18.50;99.90;;;;;;2092920;28;20092;-68
2021/08/05 02:41:50;;;;;;;22.73;20.75;;;18.50;99.90;;;;;;2099128;28;20049;-68
2021/08/05 02:42:52;;;;;;;23.52;21.52;;;18.50;99.90;;;;;;2103134;28;20033;-68
2021/08/05 02:43:55;;;;;;;19.77;18.05;;;18.50;99.90;;;;;;2105672;28;20024;-68
2021/08/05 02:44:56;;;;;;;22.83;20.67;;;18.40;99.90;;;;;;2107142;28;20028;-68
2021/08/05 02:45:58;;;;;;;21.95;19.90;;;18.50;99.90;;;;;;2101903;28;20028;-68
2021/08/05 02:47:00;;;;;;;24.33;21.73;;;18.40;99.90;;;;;;2104063;28;20020;-68
2021/08/05 02:48:02;;;;;;;24.05;21.73;;;18.50;99.90;;;;;;2107354;28;20379;-68
2021/08/05 02:49:04;;;;;;;24.73;22.33;;;18.40;99.90;;;;;;2107233;28;20024;-68
2021/08/05 02:50:06;;;;;;;23.42;21.30;;;18.40;99.90;;;;;;2100610;28;20403;-68
2021/08/05 02:51:07;;;;;;;21.70;19.73;;;18.50;99.90;;;;;;2098740;28;20024;-68
2021/08/05 02:52:08;;;;;;;25.13;22.73;;;18.50;99.90;;;;;;2106234;28;20100;-68
2021/08/05 02:53:10;;;;;;;23.95;21.85;;;18.40;99.90;;;;;;2103283;28;20017;-68
2021/08/05 02:54:11;;;;;;;25.27;22.48;;;18.40;99.90;;;;;;2107594;28;20024;-68
2021/08/05 02:55:12;;;;;;;24.63;22.23;;;18.40;99.90;;;;;;2106345;28;20021;-68
2021/08/05 02:56:16;;;;;;;24.45;22.05;;;18.40;99.90;;;;;;2102414;28;20026;-68
2021/08/05 02:57:18;;;;;;;26.45;23.95;;;18.40;99.90;;;;;;2097256;28;20120;-68
2021/08/05 02:58:19;;;;;;;24.30;21.90;;;18.40;99.90;;;;;;2095744;28;20082;-68
2021/08/05 02:59:19;;;;;;;24.55;22.33;;;18.40;99.90;;;;;;2090733;28;20071;-68
2021/08/05 03:00:21;;;;;;;19.75;18.00;;;18.40;99.90;;;;;;2097787;28;20029;-68
2021/08/05 03:01:22;;;;;;;21.27;19.40;;;18.40;99.90;;;;;;2101988;28;20081;-68
2021/08/05 03:02:23;;;;;;;21.02;19.13;;;18.40;99.90;;;;;;2105812;28;20383;-68
2021/08/05 03:03:24;;;;;;;22.25;19.90;;;18.40;99.90;;;;;;2099411;28;20068;-68
2021/08/05 03:04:30;;;;;;;20.52;18.63;;;18.40;99.90;;;;;;2099151;28;20052;-68
2021/08/05 03:05:31;;;;;;;18.77;17.20;;;18.40;99.90;;;;;;2100937;28;20071;-68
2021/08/05 03:06:33;;;;;;;20.35;18.55;;;18.40;99.90;;;;;;2101621;28;20078;-68
2021/08/05 03:07:33;;;;;;;20.55;18.67;;;18.40;99.90;;;;;;2102847;28;20540;-68
2021/08/05 03:08:39;;;;;;;21.55;19.45;;;18.40;99.90;;;;;;2106121;28;20414;-68
2021/08/05 03:09:40;;;;;;;20.55;18.65;;;18.40;99.90;;;;;;2098541;28;20029;-68
2021/08/05 03:10:40;;;;;;;17.25;15.75;;;18.40;99.90;;;;;;2097352;28;20044;-68
2021/08/05 03:11:41;;;;;;;17.52;15.88;;;18.40;99.90;;;;;;2088370;28;20036;-68
2021/08/05 03:12:42;;;;;;;22.02;20.08;;;18.40;99.90;;;;;;2091990;28;20506;-68
2021/08/05 03:13:43;;;;;;;16.85;15.45;;;18.40;99.90;;;;;;2096345;28;20063;-68
2021/08/05 03:14:43;;;;;;;19.42;17.65;;;18.40;99.90;;;;;;2103931;28;20041;-68
2021/08/05 03:15:44;;;;;;;18.63;17.00;;;18.40;99.90;;;;;;2105789;28;20028;-68
2021/08/05 03:16:44;;;;;;;17.35;15.57;;;18.40;99.90;;;;;;2105408;28;20020;-68
2021/08/05 03:17:45;;;;;;;21.23;19.23;;;18.40;99.90;;;;;;2103278;28;20031;-68
2021/08/05 03:18:45;;;;;;;22.70;20.65;;;18.40;99.90;;;;;;2097766;28;20032;-68
2021/08/05 03:19:46;;;;;;;18.20;16.58;;;18.40;99.90;;;;;;2101514;28;20102;-68
2021/08/05 03:20:46;;;;;;;19.15;17.45;;;18.40;99.90;;;;;;2099976;28;20028;-68
2021/08/05 03:21:47;;;;;;;17.40;15.90;;;18.40;99.90;;;;;;2098235;28;20036;-68
2021/08/05 03:22:47;;;;;;;19.15;17.38;;;18.40;99.90;;;;;;2097035;28;20056;-68
2021/08/05 03:23:48;;;;;;;20.83;18.98;;;18.40;99.90;;;;;;2091526;28;20135;-68
2021/08/05 03:24:49;;;;;;;21.00;19.02;;;18.40;99.90;;;;;;2105884;28;20086;-68
2021/08/05 03:25:49;;;;;;;18.92;17.23;;;18.40;99.90;;;;;;2105737;28;20414;-68
2021/08/05 03:26:50;;;;;;;18.02;16.20;;;18.40;99.90;;;;;;2105355;28;20020;-68
2021/08/05 03:27:50;;;;;;;20.80;18.70;;;18.40;99.90;;;;;;2097315;28;20840;-68
2021/08/05 03:28:51;;;;;;;15.57;13.98;;;18.40;99.90;;;;;;2095613;28;20039;-68
2021/08/05 03:29:52;;;;;;;15.35;13.85;;;18.40;99.90;;;;;;2093530;28;20017;-68
2021/08/05 03:30:52;;;;;;;16.30;14.80;;;18.40;99.90;;;;;;2094694;28;20032;-68
2021/08/05 03:31:53;;;;;;;13.23;12.10;;;18.40;99.90;;;;;;2097431;28;20031;-68
2021/08/05 03:32:54;;;;;;;17.58;16.05;;;18.30;99.90;;;;;;2094047;28;20045;-68
2021/08/05 03:33:54;;;;;;;15.68;14.25;;;18.30;99.90;;;;;;2097783;28;20024;-68
2021/08/05 03:34:55;;;;;;;17.85;16.15;;;18.40;99.90;;;;;;2097642;28;20021;-68
2021/08/05 03:35:56;;;;;;;20.58;18.58;;;18.40;99.90;;;;;;2104594;28;20016;-68
2021/08/05 03:36:57;;;;;;;19.35;17.48;;;18.30;99.90;;;;;;2105739;28;20543;-68
2021/08/05 03:37:58;;;;;;;19.65;17.75;;;18.30;99.90;;;;;;2101404;28;20024;-68
2021/08/05 03:38:59;;;;;;;18.20;16.42;;;18.30;99.90;;;;;;2096983;28;20095;-68
2021/08/05 03:39:59;;;;;;;15.18;13.77;;;18.30;99.90;;;;;;2094083;28;20373;-68
2021/08/05 03:41:01;;;;;;;16.08;14.55;;;18.40;99.90;;;;;;2096499;28;20464;-68
2021/08/05 03:42:02;;;;;;;16.77;15.18;;;18.30;99.90;;;;;;2099494;28;20036;-68
2021/08/05 03:43:02;;;;;;;13.90;12.60;;;18.40;99.90;;;;;;2096975;28;20029;-68
2021/08/05 03:44:03;;;;;;;15.18;13.77;;;18.40;99.90;;;;;;2098045;28;20023;-68
2021/08/05 03:45:04;;;;;;;18.58;16.77;;;18.40;99.90;;;;;;2096952;28;20024;-68
2021/08/05 03:46:05;;;;;;;21.67;19.50;;;18.30;99.90;;;;;;2097103;28;20035;-68
2021/08/05 03:47:05;;;;;;;20.45;18.55;;;18.40;99.90;;;;;;2097462;28;20039;-68
2021/08/05 03:48:06;;;;;;;19.92;18.02;;;18.40;99.90;;;;;;2093492;28;20040;-68
2021/08/05 03:49:07;;;;;;;22.83;20.60;;;18.40;99.90;;;;;;2096609;28;20048;-68
2021/08/05 03:50:08;;;;;;;23.02;20.77;;;18.30;99.90;;;;;;2095689;28;20020;-68
2021/08/05 03:51:08;;;;;;;23.40;21.20;;;18.40;99.90;;;;;;2096236;28;20032;-68
2021/08/05 03:52:10;;;;;;;23.05;21.00;;;18.30;99.90;;;;;;2104263;28;20048;-68
2021/08/05 03:53:11;;;;;;;22.23;20.17;;;18.40;99.90;;;;;;2096861;28;20084;-68
2021/08/05 03:54:11;;;;;;;20.88;18.77;;;18.30;99.90;;;;;;2088890;28;20104;-68
2021/08/05 03:55:15;;;;;;;22.00;19.98;;;18.30;99.90;;;;;;2100907;28;20020;-68
2021/08/05 03:56:16;;;;;;;20.10;18.27;;;18.30;99.90;;;;;;2101271;28;20103;-68
2021/08/05 03:57:16;;;;;;;17.40;15.82;;;18.30;99.90;;;;;;2097009;28;20029;-68
2021/08/05 03:58:18;;;;;;;16.88;15.38;;;18.30;99.90;;;;;;2098850;28;20024;-68
2021/08/05 03:59:18;;;;;;;15.20;13.80;;;18.30;99.90;;;;;;2096733;28;20032;-68
2021/08/05 04:00:19;;;;;;;21.48;19.33;;;18.30;99.90;;;;;;2097401;28;20021;-68
2021/08/05 04:01:19;;;;;;;22.00;20.00;;;18.30;99.90;;;;;;2100108;28;20077;-68
2021/08/05 04:02:20;;;;;;;19.52;17.77;;;18.30;99.90;;;;;;2102491;28;20089;-68
2021/08/05 04:03:20;;;;;;;16.98;15.10;;;18.30;99.90;;;;;;2103127;28;20034;-68
2021/08/05 04:04:21;;;;;;;18.05;16.55;;;18.30;99.90;;;;;;2105380;28;20031;-68
2021/08/05 04:05:22;;;;;;;17.80;16.23;;;18.30;99.90;;;;;;2105642;28;20428;-68
2021/08/05 04:06:23;;;;;;;17.38;15.77;;;18.30;99.90;;;;;;2105217;28;20438;-68
2021/08/05 04:07:24;;;;;;;18.38;16.75;;;18.30;99.90;;;;;;2102311;28;20036;-68
2021/08/05 04:08:24;;;;;;;18.38;16.67;;;18.30;99.90;;;;;;2096512;28;20037;-68
2021/08/05 04:09:25;;;;;;;19.50;17.50;;;18.30;99.90;;;;;;2099155;28;20036;-68
2021/08/05 04:10:26;;;;;;;17.92;16.38;;;18.30;99.90;;;;;;2089412;28;20033;-68
2021/08/05 04:11:26;;;;;;;19.73;17.95;;;18.30;99.90;;;;;;2094412;28;20036;-68
2021/08/05 04:12:27;;;;;;;19.27;17.55;;;18.30;99.90;;;;;;2096593;28;20040;-68
2021/08/05 04:13:27;;;;;;;19.63;17.80;;;18.30;99.90;;;;;;2089213;28;20033;-68
2021/08/05 04:14:28;;;;;;;17.33;15.63;;;18.40;99.90;;;;;;2096510;28;20030;-68
2021/08/05 04:15:28;;;;;;;15.60;14.23;;;18.30;99.90;;;;;;2105496;28;20464;-68
2021/08/05 04:16:29;;;;;;;17.48;15.93;;;18.30;99.90;;;;;;2101239;28;20032;-68
2021/08/05 04:17:30;;;;;;;16.98;15.35;;;18.30;99.90;;;;;;2099091;28;20049;-68
2021/08/05 04:18:30;;;;;;;17.27;15.73;;;18.30;99.90;;;;;;2089721;28;20032;-68
2021/08/05 04:19:31;;;;;;;16.95;15.50;;;18.30;99.90;;;;;;2098510;28;20122;-68
2021/08/05 04:20:31;;;;;;;17.58;16.00;;;18.30;99.90;;;;;;2096876;28;20086;-68
2021/08/05 04:21:32;;;;;;;17.13;15.60;;;18.30;99.90;;;;;;2099640;28;20052;-68
2021/08/05 04:22:32;;;;;;;15.85;14.35;;;18.30;99.90;;;;;;2099423;28;20105;-68
2021/08/05 04:23:35;;;;;;;13.32;12.15;;;18.30;99.90;;;;;;2096238;28;20028;-68
2021/08/05 04:24:35;;;;;;;13.43;12.10;;;18.30;99.90;;;;;;2104095;28;20103;-68
2021/08/05 04:25:37;;;;;;;16.48;14.98;;;18.30;99.90;;;;;;2105096;28;20032;-68
2021/08/05 04:26:38;;;;;;;15.43;14.07;;;18.30;99.90;;;;;;2105208;28;20117;-68
2021/08/05 04:27:40;;;;;;;18.98;17.30;;;18.30;99.90;;;;;;2103082;28;20117;-68
2021/08/05 04:28:40;;;;;;;18.33;16.60;;;18.30;99.90;;;;;;2096316;28;20028;-68
2021/08/05 04:29:41;;;;;;;14.85;13.45;;;18.30;99.90;;;;;;2100287;28;20033;-68
2021/08/05 04:30:41;;;;;;;17.42;15.85;;;18.30;99.90;;;;;;2097178;28;20067;-68
2021/08/05 04:31:42;;;;;;;17.67;15.93;;;18.30;99.90;;;;;;2105008;28;20024;-68
2021/08/05 04:32:43;;;;;;;16.63;15.00;;;18.30;99.90;;;;;;2104522;28;20466;-68
2021/08/05 04:33:44;;;;;;;15.35;14.00;;;18.30;99.90;;;;;;2104954;28;20357;-68
2021/08/05 04:34:47;;;;;;;17.42;15.63;;;18.40;99.90;;;;;;2105248;28;20471;-68
2021/08/05 04:35:48;;;;;;;17.10;15.35;;;18.30;99.90;;;;;;2098573;28;20020;-69
2021/08/05 04:36:48;;;;;;;14.88;13.50;;;18.30;99.90;;;;;;2097007;28;20024;-69
2021/08/05 04:38:00;;;;;;;17.13;15.50;;;18.30;99.90;;;;;;2101174;28;20032;-69
2021/08/05 04:39:00;;;;;;;15.30;13.98;;;18.40;99.90;;;;;;2096840;28;20111;-69
2021/08/05 04:40:02;;;;;;;16.27;14.75;;;18.30;99.90;;;;;;2095577;28;20024;-69
2021/08/05 04:41:02;;;;;;;13.70;12.23;;;18.30;99.90;;;;;;2089759;28;20036;-68
2021/08/05 04:42:03;;;;;;;15.88;14.38;;;18.30;99.90;;;;;;2099734;28;20020;-68
2021/08/05 04:43:04;;;;;;;16.17;14.57;;;18.30;99.90;;;;;;2104971;28;20034;-68
2021/08/05 04:44:05;;;;;;;16.75;15.23;;;18.30;99.90;;;;;;2104928;28;20399;-68
2021/08/05 04:45:06;;;;;;;16.65;15.05;;;18.30;99.90;;;;;;2099818;28;20012;-68
2021/08/05 04:46:06;;;;;;;16.92;15.30;;;18.40;99.90;;;;;;2098146;28;20059;-69
2021/08/05 04:47:07;;;;;;;15.50;14.20;;;18.40;99.90;;;;;;2103926;28;20024;-69
2021/08/05 04:48:08;;;;;;;16.48;14.70;;;18.40;99.90;;;;;;2104799;28;20022;-69
2021/08/05 04:49:09;;;;;;;17.33;15.73;;;18.40;99.90;;;;;;2105004;28;20022;-69
2021/08/05 04:50:09;;;;;;;17.85;16.05;;;18.40;99.90;;;;;;2100563;28;20020;-69
2021/08/05 04:51:10;;;;;;;15.50;14.02;;;18.40;99.90;;;;;;2096467;28;20036;-68
2021/08/05 04:52:10;;;;;;;17.42;14.27;;;18.40;99.90;;;;;;2104669;28;20024;-68
2021/08/05 04:53:16;;;;;;;15.13;13.63;;;18.40;99.90;;;;;;2101904;28;20455;-68
2021/08/05 04:54:17;;;;;;;15.50;14.10;;;18.40;99.90;;;;;;2104929;28;20024;-68
2021/08/05 04:55:17;;;;;;;14.15;12.98;;;18.40;99.90;;;;;;2105073;28;20024;-68
2021/08/05 04:56:18;;;;;;;15.57;14.20;;;18.40;99.90;;;;;;2100693;28;20017;-68
2021/08/05 04:57:18;;;;;;;14.77;13.50;;;18.40;99.90;;;;;;2096783;28;20521;-68
2021/08/05 04:58:19;;;;;;;16.13;13.88;;;18.40;99.90;;;;;;2097981;28;20024;-68
2021/08/05 04:59:19;;;;;;;15.95;14.40;;;18.40;99.90;;;;;;2091755;28;20091;-68
2021/08/05 05:00:32;;;;;;;14.65;13.25;;;18.40;99.90;;;;;;2096460;28;20039;-68
2021/08/05 05:01:32;;;;;;;15.95;14.35;;;18.50;99.90;;;;;;2093421;28;20020;-68
2021/08/05 05:02:33;;;;;;;15.23;13.82;;;18.40;99.90;;;;;;2097233;28;20032;-68
2021/08/05 05:03:33;;;;;;;14.75;12.50;;;18.40;99.90;;;;;;2105144;28;20069;-68
2021/08/05 05:04:34;;;;;;;15.35;13.75;;;18.40;99.90;;;;;;2104774;28;20483;-68
2021/08/05 05:05:35;;;;;;;15.73;14.13;;;18.50;99.90;;;;;;2104974;28;20535;-68
2021/08/05 05:06:36;;;;;;;15.07;13.68;;;18.40;99.90;;;;;;2102790;28;20032;-68
2021/08/05 05:07:36;;;;;;;14.65;13.25;;;18.50;99.90;;;;;;2103684;28;20028;-68
2021/08/05 05:08:37;;;;;;;13.82;12.52;;;18.50;99.90;;;;;;2096603;28;20056;-68
2021/08/05 05:09:37;;;;;;;16.08;13.05;;;18.50;99.90;;;;;;2099669;28;20024;-68
2021/08/05 05:10:38;;;;;;;14.88;13.10;;;18.50;99.90;;;;;;2096776;28;20044;-68
2021/08/05 05:11:39;;;;;;;13.25;11.88;;;18.50;99.90;;;;;;2105011;28;20039;-69
2021/08/05 05:12:40;;;;;;;13.95;12.65;;;18.50;99.90;;;;;;2100875;28;20032;-69
2021/08/05 05:13:40;;;;;;;12.60;11.40;;;18.50;99.90;;;;;;2096605;28;20040;-69
2021/08/05 05:14:41;;;;;;;11.57;10.57;;;18.60;99.90;;;;;;2102940;28;20028;-69
2021/08/05 05:15:42;;;;;;;11.48;10.40;;;18.60;99.90;;;;;;2104916;28;20024;-68